Time;durP1;ratioP1;P1;durP2;ratioP2;P2;SDS_P1;SDS_P2;PMS_P1;PMS_P2;Temp;Humidity;BMP_temperature;BMP_pressure;BME280_temperature;BME280_humidity;BME280_pressure;Samples;Min_cycle;Max_cycle;Signal;HPM_P1;HPM_P2
2023/01/10 00:01:35;;;;;;;10.95;2.40;;;6.00;99.90;;;;;;4875968;29;20040;-92
2023/01/10 00:04:01;;;;;;;16.17;2.80;;;5.90;99.90;;;;;;4858369;29;20056;-93
2023/01/10 00:06:26;;;;;;;8.77;2.03;;;5.90;99.90;;;;;;4876021;29;20045;-93
2023/01/10 00:08:52;;;;;;;12.57;2.65;;;5.90;99.90;;;;;;4880522;29;20044;-92
2023/01/10 00:14:01;;;;;;;10.65;2.20;;;5.90;99.90;;;;;;4870682;29;20049;-93
2023/01/10 00:16:27;;;;;;;9.32;2.00;;;5.90;99.90;;;;;;4898555;29;20503;-92
2023/01/10 00:18:53;;;;;;;18.75;2.65;;;5.80;99.90;;;;;;4856129;29;20050;-93
2023/01/10 00:21:18;;;;;;;21.02;3.33;;;5.80;99.90;;;;;;4884499;29;20059;-92
2023/01/10 00:23:44;;;;;;;17.50;2.85;;;5.90;99.90;;;;;;4891464;29;20493;-93
2023/01/10 00:26:10;;;;;;;19.50;2.67;;;5.80;99.90;;;;;;4885038;29;20490;-93
2023/01/10 00:28:38;;;;;;;14.85;2.40;;;5.80;99.90;;;;;;4890890;29;20045;-93
2023/01/10 00:31:05;;;;;;;13.38;2.58;;;5.80;99.90;;;;;;4881529;29;20553;-92
2023/01/10 00:33:35;;;;;;;13.20;2.40;;;5.80;99.90;;;;;;4892586;29;20040;-92
2023/01/10 00:36:02;;;;;;;15.05;2.65;;;5.80;99.90;;;;;;4899975;29;20067;-93
2023/01/10 00:38:29;;;;;;;10.68;2.60;;;5.80;99.90;;;;;;4889663;29;20136;-93
2023/01/10 00:40:55;;;;;;;9.05;2.00;;;5.80;99.90;;;;;;4896541;29;20497;-92
2023/01/10 00:46:06;;;;;;;17.50;2.60;;;5.80;99.90;;;;;;4897312;29;20052;-93
2023/01/10 00:48:32;;;;;;;19.38;2.72;;;5.80;99.90;;;;;;4866693;29;20049;-93
2023/01/10 00:50:57;;;;;;;16.98;2.70;;;5.80;99.90;;;;;;4865816;29;20049;-92
2023/01/10 00:53:23;;;;;;;11.02;2.00;;;5.80;99.90;;;;;;4881962;29;20132;-92
2023/01/10 00:55:48;;;;;;;14.32;2.10;;;5.80;99.90;;;;;;4882444;29;20049;-92
2023/01/10 00:58:15;;;;;;;13.00;2.08;;;5.80;99.90;;;;;;4884458;29;20077;-92
2023/01/10 01:00:45;;;;;;;14.05;2.47;;;5.80;99.90;;;;;;4863702;29;20105;-92
2023/01/10 01:03:11;;;;;;;15.73;2.40;;;5.80;99.90;;;;;;4865631;29;20053;-92
2023/01/10 01:05:41;;;;;;;17.65;2.40;;;5.80;99.90;;;;;;4875762;29;20105;-92
2023/01/10 01:08:07;;;;;;;14.48;2.60;;;5.80;99.90;;;;;;4872305;29;20059;-92
2023/01/10 01:10:33;;;;;;;11.48;2.42;;;5.80;99.90;;;;;;4884659;29;20041;-92
2023/01/10 01:13:15;;;;;;;17.00;2.78;;;5.80;99.90;;;;;;4878955;29;20501;-93
2023/01/10 01:15:41;;;;;;;17.85;2.80;;;5.80;99.90;;;;;;4883706;29;20044;-92
2023/01/10 01:18:07;;;;;;;13.63;2.33;;;5.80;99.90;;;;;;4868638;29;20048;-91
2023/01/10 01:20:33;;;;;;;18.45;2.33;;;5.80;99.90;;;;;;4882726;29;20092;-93
2023/01/10 01:22:59;;;;;;;12.52;2.53;;;5.80;99.90;;;;;;4883325;29;20099;-92
2023/01/10 01:25:25;;;;;;;12.15;2.47;;;5.80;99.90;;;;;;4900133;29;20041;-93
2023/01/10 01:27:51;;;;;;;12.90;2.50;;;5.80;99.90;;;;;;4882055;29;20391;-91
2023/01/10 01:30:16;;;;;;;14.68;3.00;;;5.80;99.90;;;;;;4883279;29;20486;-92
2023/01/10 01:32:42;;;;;;;24.17;3.17;;;5.80;99.90;;;;;;4883560;29;20123;-92
2023/01/10 01:35:12;;;;;;;14.75;3.08;;;5.80;99.90;;;;;;4882213;29;20052;-93
2023/01/10 01:37:38;;;;;;;18.50;2.78;;;5.80;99.90;;;;;;4890693;29;20046;-92
2023/01/10 01:40:04;;;;;;;14.90;2.63;;;5.80;99.90;;;;;;4876858;29;20041;-93
2023/01/10 01:42:32;;;;;;;17.85;2.72;;;5.80;99.90;;;;;;4886749;29;20088;-92
2023/01/10 01:45:07;;;;;;;13.80;2.53;;;5.80;99.90;;;;;;4863535;29;20049;-92
2023/01/10 01:47:38;;;;;;;12.73;1.95;;;5.80;99.90;;;;;;4855679;29;20048;-90
2023/01/10 01:50:04;;;;;;;15.25;2.00;;;5.80;99.90;;;;;;4864598;29;20486;-92
2023/01/10 01:52:33;;;;;;;14.90;2.67;;;5.80;99.90;;;;;;4868491;29;20062;-92
2023/01/10 01:55:02;;;;;;;12.38;2.22;;;5.80;99.90;;;;;;4862693;29;20066;-92
2023/01/10 01:57:30;;;;;;;11.10;1.90;;;5.80;99.90;;;;;;4889961;29;20123;-92
2023/01/10 01:59:56;;;;;;;17.65;2.55;;;5.70;99.90;;;;;;4864836;29;20521;-92
2023/01/10 02:02:33;;;;;;;13.35;2.03;;;5.70;99.90;;;;;;4864031;29;20136;-91
2023/01/10 02:05:09;;;;;;;17.98;2.53;;;5.70;99.90;;;;;;4883041;29;20045;-92
2023/01/10 02:07:40;;;;;;;12.65;2.10;;;5.70;99.90;;;;;;4866344;29;20044;-93
2023/01/10 02:10:18;;;;;;;15.73;2.50;;;5.70;99.90;;;;;;4870253;29;20055;-91
2023/01/10 02:12:45;;;;;;;22.63;3.17;;;5.70;99.90;;;;;;4881597;29;20052;-92
2023/01/10 02:15:14;;;;;;;22.23;2.60;;;5.70;99.90;;;;;;4860818;29;20060;-92
2023/01/10 02:17:40;;;;;;;19.25;2.90;;;5.70;99.90;;;;;;4862062;29;20491;-92
2023/01/10 02:20:09;;;;;;;20.08;2.97;;;5.70;99.90;;;;;;4871428;29;20056;-92
2023/01/10 02:22:56;;;;;;;20.50;2.50;;;5.70;99.90;;;;;;4898858;29;20071;-91
2023/01/10 02:25:57;;;;;;;12.77;2.55;;;5.70;99.90;;;;;;4864088;29;20049;-92
2023/01/10 02:28:41;;;;;;;9.52;1.77;;;5.60;99.90;;;;;;4865244;29;20101;-92
2023/01/10 02:31:36;;;;;;;15.95;2.30;;;5.60;99.90;;;;;;4883923;29;20045;-93
2023/01/10 02:34:16;;;;;;;15.63;2.58;;;5.70;99.90;;;;;;4871687;29;20056;-92
2023/01/10 02:37:20;;;;;;;16.08;2.47;;;5.60;99.90;;;;;;4878687;29;20123;-92
2023/01/10 02:40:02;;;;;;;12.98;2.50;;;5.60;99.90;;;;;;4860355;29;20040;-92
2023/01/10 02:42:54;;;;;;;16.15;2.33;;;5.60;99.90;;;;;;4872319;29;20080;-92
2023/01/10 02:45:32;;;;;;;10.60;2.05;;;5.60;99.90;;;;;;4872982;29;20618;-93
2023/01/10 02:47:58;;;;;;;13.70;2.50;;;5.60;99.90;;;;;;4875437;29;20052;-92
2023/01/10 02:50:28;;;;;;;9.90;2.13;;;5.60;99.90;;;;;;4880160;29;20422;-92
2023/01/10 02:52:58;;;;;;;12.80;2.22;;;5.60;99.90;;;;;;4879668;29;20045;-92
2023/01/10 02:55:34;;;;;;;22.88;2.95;;;5.60;99.90;;;;;;4882928;29;20045;-93
2023/01/10 02:58:13;;;;;;;16.98;2.75;;;5.60;99.90;;;;;;4885021;29;20051;-92
2023/01/10 03:00:59;;;;;;;13.57;2.67;;;5.60;99.90;;;;;;4863848;29;20071;-92
2023/01/10 03:03:48;;;;;;;19.52;2.92;;;5.60;99.90;;;;;;4881329;29;20049;-93
2023/01/10 03:06:43;;;;;;;13.20;2.38;;;5.70;99.90;;;;;;4842806;29;20060;-94
2023/01/10 03:09:34;;;;;;;12.10;2.30;;;5.70;99.90;;;;;;4861635;29;20052;-94
2023/01/10 03:12:26;;;;;;;14.52;2.53;;;5.70;99.90;;;;;;4875128;29;20056;-92
2023/01/10 03:14:54;;;;;;;11.23;2.13;;;5.70;99.90;;;;;;4877451;29;20045;-93
2023/01/10 03:17:21;;;;;;;12.93;1.92;;;5.70;99.90;;;;;;4876443;29;20482;-93
2023/01/10 03:19:51;;;;;;;19.90;2.50;;;5.70;99.90;;;;;;4895810;29;20560;-92
2023/01/10 03:22:17;;;;;;;20.08;2.75;;;5.70;99.90;;;;;;4881076;29;20499;-93
2023/01/10 03:24:47;;;;;;;12.60;2.15;;;5.80;99.90;;;;;;4891502;29;20188;-93
2023/01/10 03:27:21;;;;;;;17.80;2.72;;;5.70;99.90;;;;;;4865228;29;20037;-93
2023/01/10 03:30:20;;;;;;;16.23;2.55;;;5.80;99.90;;;;;;4887894;29;20049;-94
2023/01/10 03:32:46;;;;;;;15.52;2.70;;;5.80;99.90;;;;;;4882493;29;20044;-92
2023/01/10 03:35:13;;;;;;;14.85;2.30;;;5.80;99.90;;;;;;4866402;29;20040;-93
2023/01/10 03:38:07;;;;;;;15.23;2.30;;;5.80;99.90;;;;;;4877968;29;20105;-93
2023/01/10 03:40:49;;;;;;;10.52;2.38;;;5.80;99.90;;;;;;4878334;29;20052;-93
2023/01/10 03:46:55;;;;;;;12.38;2.38;;;5.80;99.90;;;;;;4868102;29;20041;-92
2023/01/10 03:49:23;;;;;;;20.42;3.08;;;5.80;99.90;;;;;;4892222;29;20056;-93
2023/01/10 03:51:50;;;;;;;18.33;3.22;;;5.80;99.90;;;;;;4868207;29;20049;-94
2023/01/10 03:54:16;;;;;;;20.67;3.10;;;5.90;99.90;;;;;;4866868;29;20067;-94
2023/01/10 03:56:50;;;;;;;16.38;2.45;;;5.90;99.90;;;;;;4883497;29;20398;-94
2023/01/10 03:59:18;;;;;;;18.45;3.00;;;5.90;99.90;;;;;;4871890;29;20045;-93
2023/01/10 04:01:43;;;;;;;18.50;2.72;;;5.90;99.90;;;;;;4885352;29;20127;-93
2023/01/10 04:04:10;;;;;;;21.65;3.17;;;5.90;99.90;;;;;;4875980;29;20139;-93
2023/01/10 04:06:35;;;;;;;13.20;2.88;;;5.90;99.90;;;;;;4884712;29;20049;-93
2023/01/10 04:09:01;;;;;;;12.50;2.58;;;5.90;99.90;;;;;;4884802;29;20489;-92
2023/01/10 04:11:30;;;;;;;11.95;2.22;;;6.00;99.90;;;;;;4879183;29;20045;-92
2023/01/10 04:13:55;;;;;;;15.43;2.45;;;5.90;99.90;;;;;;4902050;29;20056;-93
2023/01/10 04:16:21;;;;;;;17.17;2.70;;;6.00;99.90;;;;;;4884860;29;20049;-93
2023/01/10 04:18:46;;;;;;;18.05;2.92;;;5.90;99.90;;;;;;4879301;29;20562;-93
2023/01/10 04:21:12;;;;;;;16.38;2.78;;;5.90;99.90;;;;;;4855133;29;20136;-92
2023/01/10 04:23:38;;;;;;;23.35;3.17;;;5.90;99.90;;;;;;4858573;29;20497;-93
2023/01/10 04:26:03;;;;;;;17.40;2.58;;;6.00;99.90;;;;;;4873689;29;20048;-92
2023/01/10 04:28:29;;;;;;;14.98;2.58;;;5.90;99.90;;;;;;4868603;29;20049;-93
2023/01/10 04:30:54;;;;;;;14.48;2.85;;;5.90;99.90;;;;;;4867145;29;20044;-93
2023/01/10 04:33:20;;;;;;;17.38;3.55;;;5.90;99.90;;;;;;4882690;29;20116;-93
2023/01/10 04:35:48;;;;;;;18.80;3.17;;;5.90;99.90;;;;;;4864842;29;20050;-93
2023/01/10 04:38:13;;;;;;;13.30;2.70;;;5.90;99.90;;;;;;4864253;29;20045;-93
2023/01/10 04:40:39;;;;;;;11.40;2.50;;;5.90;99.90;;;;;;4864002;29;20089;-94
2023/01/10 04:43:04;;;;;;;15.57;2.83;;;5.90;99.90;;;;;;4882387;29;20087;-92
2023/01/10 04:45:30;;;;;;;16.27;3.08;;;6.00;99.90;;;;;;4865575;29;20060;-93
2023/01/10 04:47:55;;;;;;;16.05;3.13;;;5.90;99.90;;;;;;4865906;29;20515;-93
2023/01/10 04:50:22;;;;;;;18.88;2.92;;;5.90;99.90;;;;;;4882984;29;20131;-93
2023/01/10 04:52:48;;;;;;;16.38;3.10;;;5.90;99.90;;;;;;4884441;29;20041;-92
2023/01/10 04:55:14;;;;;;;21.27;3.40;;;6.00;99.90;;;;;;4863700;29;20048;-92
2023/01/10 04:57:39;;;;;;;16.83;3.17;;;6.00;99.90;;;;;;4864234;29;20053;-93
2023/01/10 05:00:06;;;;;;;10.23;2.50;;;6.00;99.90;;;;;;4864162;29;20045;-96
2023/01/10 05:02:31;;;;;;;17.15;2.83;;;6.00;99.90;;;;;;4870446;29;20403;-95
2023/01/10 05:04:57;;;;;;;20.33;3.45;;;6.00;99.90;;;;;;4858632;29;20053;-96
2023/01/10 05:07:22;;;;;;;17.63;3.17;;;6.00;99.90;;;;;;4869685;29;20029;-96
2023/01/10 05:09:48;;;;;;;17.10;3.17;;;6.00;99.90;;;;;;4887188;29;20056;-92
2023/01/10 05:12:18;;;;;;;14.95;3.00;;;6.00;99.90;;;;;;4872225;29;20091;-96
2023/01/10 05:31:50;;;;;;;20.90;3.00;;;6.00;99.90;;;;;;4799674;29;20051;-93
2023/01/10 05:34:19;;;;;;;20.63;3.65;;;6.00;99.90;;;;;;4790972;29;20071;-93
2023/01/10 05:36:45;;;;;;;25.25;3.40;;;6.10;99.90;;;;;;4806848;29;20047;-94
2023/01/10 05:39:12;;;;;;;15.65;3.15;;;6.10;99.90;;;;;;4829222;29;20122;-93
2023/01/10 05:41:39;;;;;;;18.98;3.35;;;6.20;99.90;;;;;;4844780;29;20054;-94
2023/01/10 05:44:05;;;;;;;17.23;2.95;;;6.10;99.90;;;;;;4828226;29;20049;-94
2023/01/10 05:46:31;;;;;;;17.02;3.38;;;6.10;99.90;;;;;;4851829;29;20041;-93
2023/01/10 05:48:56;;;;;;;25.33;3.65;;;6.20;99.90;;;;;;4862724;29;20081;-94
2023/01/10 05:51:22;;;;;;;25.60;3.88;;;6.10;99.90;;;;;;4846809;29;20053;-94
2023/01/10 05:53:47;;;;;;;20.00;3.60;;;6.20;99.90;;;;;;4863290;29;20058;-94
2023/01/10 05:56:31;;;;;;;20.38;3.13;;;6.20;99.90;;;;;;4862067;29;20534;-94
2023/01/10 05:58:57;;;;;;;;;;;6.20;99.90;;;;;;4846914;29;20049;-94
2023/01/10 06:01:22;;;;;;;15.38;2.60;;;6.20;99.90;;;;;;4862780;29;19930;-94
2023/01/10 06:03:53;;;;;;;15.10;2.47;;;6.20;99.90;;;;;;4845884;29;20049;-94
2023/01/10 06:06:24;;;;;;;14.98;3.05;;;6.20;99.90;;;;;;4862780;29;20042;-94
2023/01/10 06:08:50;;;;;;;18.50;2.70;;;6.20;99.90;;;;;;4845929;29;20045;-93
2023/01/10 06:11:28;;;;;;;11.73;2.20;;;6.20;99.90;;;;;;4846123;29;20044;-93
2023/01/10 06:13:57;;;;;;;15.15;2.20;;;6.20;99.90;;;;;;4846034;29;20064;-92
2023/01/10 06:16:26;;;;;;;10.70;1.98;;;6.20;99.90;;;;;;4845471;29;20131;-92
2023/01/10 06:18:51;;;;;;;15.23;2.45;;;6.20;99.90;;;;;;4846050;29;20049;-94
2023/01/10 06:21:17;;;;;;;10.57;1.75;;;6.20;99.90;;;;;;4846138;29;20041;-93
2023/01/10 06:23:43;;;;;;;8.00;1.73;;;6.20;99.90;;;;;;4845940;29;20046;-93
2023/01/10 06:26:08;;;;;;;9.02;2.10;;;6.20;99.90;;;;;;4845321;29;20058;-94
2023/01/10 06:28:34;;;;;;;10.85;2.17;;;6.20;99.90;;;;;;4845893;29;20062;-93
2023/01/10 06:30:59;;;;;;;10.77;1.98;;;6.20;99.90;;;;;;4845496;29;20106;-94
2023/01/10 06:33:25;;;;;;;17.60;2.60;;;6.20;99.90;;;;;;4845536;29;20136;-93
2023/01/10 06:35:51;;;;;;;10.30;1.67;;;6.20;99.90;;;;;;4862113;29;20472;-94
2023/01/10 06:38:17;;;;;;;8.93;1.90;;;6.20;99.90;;;;;;4845575;29;20038;-94
2023/01/10 06:40:43;;;;;;;11.60;2.10;;;6.20;99.90;;;;;;4861762;29;20057;-94
2023/01/10 06:43:09;;;;;;;16.45;2.45;;;6.10;99.90;;;;;;4861996;29;20116;-94
2023/01/10 06:45:34;;;;;;;10.90;2.00;;;6.10;99.90;;;;;;4861099;29;20045;-94
2023/01/10 06:48:00;;;;;;;18.98;3.45;;;6.10;99.90;;;;;;4845467;29;20049;-93
2023/01/10 06:50:28;;;;;;;12.32;2.30;;;6.10;99.90;;;;;;4845059;29;20057;-94
2023/01/10 06:52:59;;;;;;;14.73;2.78;;;6.10;99.90;;;;;;4845041;29;20049;-93
2023/01/10 06:55:25;;;;;;;12.93;2.83;;;6.10;99.90;;;;;;4845296;29;20064;-94
2023/01/10 06:57:59;;;;;;;14.25;2.88;;;6.10;99.90;;;;;;4845103;29;20045;-94
2023/01/10 07:00:26;;;;;;;17.40;2.97;;;6.10;99.90;;;;;;4861524;29;20060;-93
2023/01/10 07:02:53;;;;;;;21.33;3.97;;;6.10;99.90;;;;;;4845539;29;20082;-93
2023/01/10 07:05:20;;;;;;;20.00;3.22;;;6.10;99.90;;;;;;4845094;29;20093;-92
2023/01/10 07:07:45;;;;;;;14.13;2.95;;;6.10;99.90;;;;;;4861673;29;20128;-93
2023/01/10 07:10:11;;;;;;;17.38;3.40;;;6.10;99.90;;;;;;4845124;29;20194;-93
2023/01/10 07:12:37;;;;;;;21.40;3.72;;;6.10;99.90;;;;;;4844995;29;20042;-93
2023/01/10 07:15:03;;;;;;;17.40;3.75;;;6.10;99.90;;;;;;4844896;29;20125;-93
2023/01/10 07:17:29;;;;;;;17.73;3.20;;;6.10;99.90;;;;;;4844742;29;20053;-94
2023/01/10 07:19:55;;;;;;;28.17;4.13;;;6.10;99.90;;;;;;4848422;29;20051;-93
2023/01/10 07:22:20;;;;;;;18.35;3.15;;;6.10;99.90;;;;;;4861120;29;20130;-93
2023/01/10 07:24:46;;;;;;;20.88;3.47;;;6.10;99.90;;;;;;4845053;29;20080;-94
2023/01/10 07:27:15;;;;;;;22.88;3.65;;;6.10;99.90;;;;;;4848101;29;20089;-93
2023/01/10 07:29:41;;;;;;;27.92;4.20;;;6.10;99.90;;;;;;4849037;29;20521;-94
2023/01/10 07:32:07;;;;;;;28.02;4.45;;;6.10;99.90;;;;;;4848997;29;20128;-93
2023/01/10 07:34:47;;;;;;;32.63;5.47;;;6.10;99.90;;;;;;4865998;29;20045;-96
2023/01/10 07:37:13;;;;;;;18.40;3.50;;;6.10;99.90;;;;;;4867248;29;20050;-95
2023/01/10 07:39:40;;;;;;;24.23;3.60;;;6.10;99.90;;;;;;4848168;29;20042;-93
2023/01/10 07:42:05;;;;;;;28.02;4.25;;;6.20;99.90;;;;;;4848055;29;20057;-93
2023/01/10 07:44:31;;;;;;;20.08;3.97;;;6.20;99.90;;;;;;4848832;29;20049;-93
2023/01/10 07:46:57;;;;;;;30.50;7.03;;;6.10;99.90;;;;;;4863952;29;20057;-93
2023/01/10 07:49:22;;;;;;;22.50;4.43;;;6.10;99.90;;;;;;4864766;29;20100;-93
2023/01/10 07:51:51;;;;;;;28.67;4.75;;;6.10;99.90;;;;;;4865218;29;20049;-93
2023/01/10 07:54:16;;;;;;;19.83;4.65;;;6.10;99.90;;;;;;4864649;29;20048;-93
2023/01/10 07:56:42;;;;;;;19.58;3.67;;;6.10;99.90;;;;;;4848584;29;20042;-93
2023/01/10 07:59:08;;;;;;;18.10;3.60;;;6.20;99.90;;;;;;4864493;29;20137;-93
2023/01/10 08:01:33;;;;;;;21.25;4.53;;;6.10;99.90;;;;;;4848335;29;20052;-94
2023/01/10 08:03:59;;;;;;;22.10;4.07;;;6.20;99.90;;;;;;4864858;29;20057;-93
2023/01/10 08:06:24;;;;;;;22.27;4.57;;;6.10;99.90;;;;;;4864566;29;20050;-93
2023/01/10 08:08:50;;;;;;;32.55;4.53;;;6.20;99.90;;;;;;4847914;29;20060;-93
2023/01/10 08:11:18;;;;;;;24.67;3.97;;;6.10;99.90;;;;;;4864511;29;20045;-94
2023/01/10 08:13:44;;;;;;;17.55;3.90;;;6.20;99.90;;;;;;4863955;29;20050;-93
2023/01/10 08:16:09;;;;;;;21.65;4.65;;;6.10;99.90;;;;;;4847486;29;20067;-92
2023/01/10 08:18:37;;;;;;;23.13;5.32;;;6.20;99.90;;;;;;4865492;29;20523;-93
2023/01/10 08:21:03;;;;;;;23.30;5.15;;;6.10;99.90;;;;;;4850016;29;20093;-93
2023/01/10 08:23:31;;;;;;;17.55;4.30;;;6.10;99.90;;;;;;4848513;29;20045;-94
2023/01/10 08:25:58;;;;;;;21.02;3.90;;;6.10;99.90;;;;;;4847806;29;20064;-91
2023/01/10 08:28:27;;;;;;;22.70;3.92;;;6.10;99.90;;;;;;4863797;29;20058;-95
2023/01/10 08:30:54;;;;;;;20.60;4.15;;;6.10;99.90;;;;;;4847642;29;20065;-94
2023/01/10 08:33:23;;;;;;;16.42;3.40;;;6.10;99.90;;;;;;4865246;29;20136;-94
2023/01/10 08:35:49;;;;;;;24.17;4.00;;;6.10;99.90;;;;;;4863722;29;20054;-93
2023/01/10 08:38:15;;;;;;;18.55;4.32;;;6.10;99.90;;;;;;4847337;29;20125;-95
2023/01/10 08:40:41;;;;;;;22.13;3.67;;;6.10;99.90;;;;;;4847379;29;20069;-94
2023/01/10 08:43:10;;;;;;;19.23;3.83;;;6.20;99.90;;;;;;4847650;29;20053;-93
2023/01/10 08:45:36;;;;;;;28.13;4.45;;;6.10;99.90;;;;;;4847839;29;20046;-93
2023/01/10 08:48:03;;;;;;;29.95;4.30;;;6.10;99.90;;;;;;4847842;29;20133;-95
2023/01/10 08:50:30;;;;;;;23.10;4.32;;;6.20;99.90;;;;;;4847464;29;20042;-94
2023/01/10 08:52:58;;;;;;;32.03;4.80;;;6.20;99.90;;;;;;4864213;29;20081;-94
2023/01/10 08:55:25;;;;;;;23.70;4.60;;;6.20;99.90;;;;;;4863743;29;20050;-95
2023/01/10 08:57:50;;;;;;;24.80;4.35;;;6.20;99.90;;;;;;4847598;29;20456;-93
2023/01/10 09:00:22;;;;;;;20.85;4.10;;;6.20;99.90;;;;;;4847602;29;20045;-96
2023/01/10 09:02:48;;;;;;;33.33;4.88;;;6.20;99.90;;;;;;4865084;29;20041;-96
2023/01/10 09:05:14;;;;;;;23.40;4.35;;;6.20;99.90;;;;;;4857363;29;20070;-96
2023/01/10 09:07:41;;;;;;;30.40;4.70;;;6.20;99.90;;;;;;4841600;29;20054;-96
2023/01/10 09:10:24;;;;;;;22.30;3.80;;;6.20;99.90;;;;;;4884649;29;20123;-96
2023/01/10 09:13:09;;;;;;;21.45;3.97;;;6.20;99.90;;;;;;4866832;29;20062;-89
2023/01/10 09:26:03;;;;;;;27.25;4.35;;;6.30;99.90;;;;;;5964551;23;21308;31
2023/01/10 09:32:32;;;;;;;23.25;4.28;;;6.30;99.90;;;;;;4908850;23;20144;31
2023/01/10 09:35:14;;;;;;;25.95;4.60;;;6.30;99.90;;;;;;4879584;29;20069;-96
2023/01/10 09:37:40;;;;;;;25.48;4.07;;;6.30;99.90;;;;;;4863770;29;20062;-96
2023/01/10 09:43:07;;;;;;;26.80;5.18;;;6.40;99.90;;;;;;4862635;29;20087;-96
2023/01/10 09:51:54;;;;;;;22.83;4.00;;;6.40;99.90;;;;;;4809440;29;20504;-96
2023/01/10 09:54:35;;;;;;;22.88;4.60;;;6.40;99.90;;;;;;4808360;29;20099;-96
2023/01/10 09:58:07;;;;;;;28.13;4.75;;;6.50;99.90;;;;;;4989946;23;20065;-96
2023/01/10 10:01:28;;;;;;;26.85;4.38;;;6.50;99.90;;;;;;5466014;23;20056;-96
2023/01/10 10:04:19;;;;;;;20.42;3.72;;;6.50;99.90;;;;;;4882399;29;20045;-96
2023/01/10 10:06:48;;;;;;;27.35;4.72;;;6.50;99.90;;;;;;4896935;29;20091;-96
2023/01/10 10:09:16;;;;;;;20.77;4.05;;;6.60;99.90;;;;;;4882176;29;20052;-96
2023/01/10 10:22:00;;;;;;;20.63;3.58;;;6.70;99.90;;;;;;1474584;23;20341;-92
2023/01/10 10:24:45;;;;;;;25.30;4.32;;;6.70;99.90;;;;;;4747051;29;20945;-93
2023/01/10 10:27:22;;;;;;;26.88;4.65;;;6.70;99.90;;;;;;4790822;29;20474;-91
2023/01/10 10:30:26;;;;;;;29.70;5.32;;;6.80;99.90;;;;;;4788636;29;20448;-93
2023/01/10 10:33:36;;;;;;;32.90;3.92;;;6.80;99.90;;;;;;4778005;30;20093;-94
2023/01/10 10:36:14;;;;;;;32.35;5.07;;;6.80;99.90;;;;;;4780197;30;20063;-93
2023/01/10 10:38:45;;;;;;;25.27;5.05;;;6.80;99.90;;;;;;4786265;29;20056;-91
2023/01/10 10:41:38;;;;;;;25.85;5.28;;;6.90;99.90;;;;;;4804069;29;20055;-92
2023/01/10 10:44:29;;;;;;;31.30;6.47;;;6.90;99.90;;;;;;4803022;29;20053;-93
2023/01/10 10:46:58;;;;;;;37.17;6.57;;;6.90;99.90;;;;;;4802472;29;20043;-93
2023/01/10 10:50:07;;;;;;;31.02;5.70;;;7.00;99.90;;;;;;4786238;29;20046;-92
2023/01/10 10:52:43;;;;;;;27.73;5.60;;;7.00;99.90;;;;;;4794151;29;20055;-96
2023/01/10 10:55:14;;;;;;;28.30;5.95;;;7.00;99.90;;;;;;4795198;29;20373;-93
2023/01/10 10:57:41;;;;;;;26.58;6.30;;;7.00;99.90;;;;;;4787800;29;20050;-95
2023/01/10 11:00:12;;;;;;;38.67;6.05;;;7.00;99.90;;;;;;4791001;29;20515;-93
2023/01/10 11:02:43;;;;;;;28.05;5.68;;;7.10;99.90;;;;;;4790134;29;20055;-92
2023/01/10 11:05:27;;;;;;;36.90;7.10;;;7.10;99.90;;;;;;4806332;29;20054;-92
2023/01/10 11:07:59;;;;;;;28.90;7.22;;;7.10;99.90;;;;;;4788129;30;20138;-96
2023/01/10 11:10:37;;;;;;;26.88;6.90;;;7.10;99.90;;;;;;4789664;30;20446;-95
2023/01/10 11:13:28;;;;;;;30.27;6.82;;;7.10;99.90;;;;;;4786744;30;20154;-95
2023/01/10 11:15:54;;;;;;;36.60;8.10;;;7.10;99.90;;;;;;4793057;29;20047;-92
2023/01/10 11:18:24;;;;;;;34.67;7.07;;;7.10;99.90;;;;;;4792680;29;20467;-95
2023/01/10 11:20:58;;;;;;;31.63;6.93;;;7.20;99.90;;;;;;4804558;29;20125;-96
2023/01/10 11:23:55;;;;;;;31.20;7.22;;;7.10;99.90;;;;;;4803694;29;20066;-96
2023/01/10 11:26:28;;;;;;;30.63;7.72;;;7.20;99.90;;;;;;4814842;29;20038;-95
2023/01/10 11:29:22;;;;;;;32.92;7.32;;;7.10;99.90;;;;;;4806477;29;20046;-96
2023/01/10 11:31:52;;;;;;;29.92;7.10;;;7.20;99.90;;;;;;4805329;29;20050;-96
2023/01/10 11:34:31;;;;;;;34.08;7.35;;;7.20;99.90;;;;;;4801350;30;20047;-96
2023/01/10 11:37:17;;;;;;;30.70;7.35;;;7.10;99.90;;;;;;4800316;29;20087;-95
2023/01/10 11:39:43;;;;;;;27.65;7.07;;;7.10;99.90;;;;;;4789611;30;20052;-96
2023/01/10 11:42:38;;;;;;;35.95;8.35;;;7.20;99.90;;;;;;4800556;29;20099;-96
2023/01/10 11:45:27;;;;;;;33.05;8.10;;;7.20;99.90;;;;;;4791820;29;20134;-96
2023/01/10 11:48:14;;;;;;;32.00;7.57;;;7.20;99.90;;;;;;4796042;29;20054;-96
2023/01/10 11:50:44;;;;;;;34.88;8.18;;;7.20;99.90;;;;;;4783950;30;20055;-96
2023/01/10 11:53:40;;;;;;;34.08;8.40;;;7.10;99.90;;;;;;4795221;29;20111;-96
2023/01/10 11:56:13;;;;;;;33.60;7.40;;;7.20;99.90;;;;;;4784264;29;20501;-96
2023/01/10 11:58:42;;;;;;;29.42;7.15;;;7.20;99.90;;;;;;4802540;29;20057;-96
2023/01/10 12:01:33;;;;;;;29.50;7.32;;;7.10;99.90;;;;;;4828927;29;20049;-96
2023/01/10 12:03:59;;;;;;;26.70;7.00;;;7.20;99.90;;;;;;4796113;29;20510;-96
2023/01/10 12:06:27;;;;;;;32.83;7.88;;;7.10;99.90;;;;;;4802777;29;20047;-96
2023/01/10 12:08:55;;;;;;;34.30;7.65;;;7.20;99.90;;;;;;4806655;29;20107;-96
2023/01/10 12:11:32;;;;;;;31.40;6.93;;;7.10;99.90;;;;;;4795265;29;20596;-96
2023/01/10 12:14:22;;;;;;;27.75;6.68;;;7.10;99.90;;;;;;4806243;29;20055;-96
2023/01/10 12:17:10;;;;;;;29.80;6.53;;;7.10;99.90;;;;;;4807334;29;20042;-96
2023/01/10 12:19:54;;;;;;;28.33;6.38;;;7.10;99.90;;;;;;4820882;29;20055;-96
2023/01/10 12:22:39;;;;;;;27.00;6.20;;;7.10;99.90;;;;;;4777878;30;20051;-96
2023/01/10 12:25:43;;;;;;;32.90;6.53;;;7.10;99.90;;;;;;4784874;30;20067;-96
2023/01/10 12:28:28;;;;;;;31.80;6.70;;;7.10;99.90;;;;;;4785631;30;20055;-96
2023/01/10 12:30:59;;;;;;;33.67;6.85;;;7.10;99.90;;;;;;4793600;29;20061;-96
2023/01/10 12:33:47;;;;;;;30.10;6.38;;;7.10;99.90;;;;;;4800869;29;20091;-96
2023/01/10 12:36:46;;;;;;;27.30;5.57;;;7.00;99.90;;;;;;4783616;30;20051;-96
2023/01/10 12:45:53;;;;;;;27.17;6.38;;;7.10;99.90;;;;;;4794184;30;20047;-95
2023/01/10 12:48:47;;;;;;;26.88;5.10;;;7.10;99.90;;;;;;4797960;30;20050;-95
2023/01/10 12:51:21;;;;;;;31.98;5.82;;;7.00;99.90;;;;;;4791248;30;20051;-95
2023/01/10 13:00:45;;;;;;;22.48;5.28;;;7.00;99.90;;;;;;4872983;29;20046;-96
2023/01/10 13:06:30;;;;;;;24.75;5.00;;;7.00;99.90;;;;;;4866612;29;20061;-95
2023/01/10 13:09:30;;;;;;;27.30;5.55;;;7.00;99.90;;;;;;4870595;29;20105;-96
2023/01/10 13:16:04;;;;;;;26.00;6.13;;;7.00;99.90;;;;;;4846354;29;20048;-94
2023/01/10 13:18:31;;;;;;;29.10;7.95;;;7.10;99.90;;;;;;4837510;29;20049;-95
2023/01/10 13:21:12;;;;;;;30.23;7.10;;;7.10;99.90;;;;;;4852803;29;20483;-96
2023/01/10 13:24:05;;;;;;;26.50;5.95;;;7.00;99.90;;;;;;4859138;29;20053;-96
2023/01/10 13:27:16;;;;;;;28.77;6.13;;;7.00;99.90;;;;;;4849966;29;20050;-96
2023/01/10 13:33:01;;;;;;;27.55;5.38;;;7.00;99.90;;;;;;4872282;29;20056;-96
2023/01/10 14:32:37;;;;;;;25.20;4.55;;;6.90;99.90;;;;;;5406357;23;20654;-96
2023/01/10 14:35:42;;;;;;;20.25;3.63;;;6.80;99.90;;;;;;4879617;29;20068;-96
2023/01/10 14:38:37;;;;;;;19.90;3.88;;;6.90;99.90;;;;;;4864660;29;20038;-96
2023/01/10 14:41:23;;;;;;;18.05;4.07;;;6.90;99.90;;;;;;4860152;29;20049;-96
2023/01/10 14:44:41;;;;;;;21.27;4.20;;;6.90;99.90;;;;;;4850617;29;20065;-96
2023/01/10 14:47:42;;;;;;;25.65;3.92;;;6.90;99.90;;;;;;4862143;29;20081;-96
2023/01/10 14:54:02;;;;;;;25.80;4.80;;;6.90;99.90;;;;;;4857849;29;20128;-95
2023/01/10 14:56:44;;;;;;;19.92;3.70;;;6.90;99.90;;;;;;4845847;29;20065;-96
2023/01/10 14:59:23;;;;;;;26.10;4.35;;;6.90;99.90;;;;;;4845549;29;20045;-96
2023/01/10 15:02:01;;;;;;;23.40;4.53;;;6.90;99.90;;;;;;4849274;29;20052;-94
2023/01/10 15:04:35;;;;;;;22.98;4.38;;;7.00;99.90;;;;;;4866417;29;20049;-96
2023/01/10 15:07:15;;;;;;;23.25;4.28;;;6.90;99.90;;;;;;4853871;29;20064;-96
2023/01/10 15:10:16;;;;;;;23.33;4.15;;;6.90;99.90;;;;;;4857402;29;20033;-96
2023/01/10 15:12:54;;;;;;;29.70;4.68;;;6.90;99.90;;;;;;4850105;29;20056;-90
2023/01/10 15:15:32;;;;;;;23.40;4.18;;;6.90;99.90;;;;;;4862963;29;20093;-93
2023/01/10 15:19:07;;;;;;;;;;;;;;;;;;;;;
2023/01/10 15:31:36;;;;;;;21.33;3.83;;;6.90;99.90;;;;;;4863711;29;20049;-96
2023/01/10 15:34:18;;;;;;;29.23;4.75;;;7.00;99.90;;;;;;4863849;29;20045;-96
2023/01/10 15:44:45;;;;;;;19.45;4.13;;;6.90;99.90;;;;;;4893495;23;20041;-96
2023/01/10 16:05:28;;;;;;;19.67;3.97;;;6.90;99.90;;;;;;4847984;29;20058;-95
2023/01/10 16:08:50;;;;;;;;;;;;;;;;;;;;;
2023/01/10 16:19:21;;;;;;;21.27;4.32;;;6.90;99.90;;;;;;4886726;29;20455;-96
2023/01/10 16:21:56;;;;;;;24.65;4.10;;;6.90;99.90;;;;;;4870415;29;20040;-96
2023/01/10 16:24:28;;;;;;;;;;;6.90;99.90;;;;;;4890185;29;20129;-96
2023/01/10 16:27:02;;;;;;;20.20;3.80;;;6.80;99.90;;;;;;4879954;29;19954;-96
2023/01/10 16:29:31;;;;;;;21.90;4.25;;;6.90;99.90;;;;;;4866861;29;20109;-94
2023/01/10 16:32:00;;;;;;;24.48;4.18;;;6.90;99.90;;;;;;4883969;29;20045;-90